Helena, Missouri
Current Conditions -  °F | °C
As of 5:53 AM on Friday 28 Nov 2014 (Local Time) from KSTJ Reporting Station
Clear Clear  
Wind Chill: 21°   Ceiling: Unl
Heat Index: 30°   Visibility: 10mi
Dew Point: 23°   Wind: 10mph
Humidity: 75%   Direction: 190°S
Pressure: 30.01"   Gusts: NA
Location:  39.91°N, 94.65°W
Report Text: KSTJ 281153Z AUTO 19009KT 10SM CLR M01/M05 A3001 RMK AO2 SLP170 T10111050 11006 21022 56038
Loading
Personal Weather Stations






























Interactive Weather Map New forecast layout! Learn more

10-Day Weather Forecast

Advertisements
Track Severe Weather on mobile